createdAt,value
2024-04-26T00:02:44.416Z,51.90
2024-04-26T00:05:30.694Z,51.94
2024-04-26T00:08:14.594Z,52.07
2024-04-26T00:11:02.059Z,51.81
2024-04-26T00:13:44.355Z,51.96
2024-04-26T00:16:35.978Z,51.87
2024-04-26T00:19:21.652Z,52.10
2024-04-26T00:22:03.671Z,52.34
2024-04-26T00:24:50.574Z,52.28
2024-04-26T00:27:38.728Z,52.28
2024-04-26T00:30:25.231Z,52.46
2024-04-26T00:33:14.566Z,52.47
2024-04-26T00:35:58.281Z,52.58
2024-04-26T00:38:47.625Z,52.55
2024-04-26T00:41:35.046Z,52.56
2024-04-26T00:44:23.508Z,52.67
2024-04-26T00:47:10.069Z,52.72
2024-04-26T00:49:56.249Z,52.80
2024-04-26T00:52:42.045Z,52.90
2024-04-26T00:55:27.481Z,52.73
2024-04-26T00:58:11.554Z,52.52
2024-04-26T01:00:56.052Z,52.58
2024-04-26T01:03:45.970Z,52.61
2024-04-26T01:06:31.386Z,52.38
2024-04-26T01:09:16.890Z,52.39
2024-04-26T01:12:06.164Z,52.42
2024-04-26T01:14:54.274Z,52.61
2024-04-26T01:17:43.269Z,52.67
2024-04-26T01:20:33.913Z,52.72
2024-04-26T01:23:17.225Z,52.92
2024-04-26T01:26:11.106Z,52.93
2024-04-26T01:29:07.076Z,53.07
2024-04-26T01:31:52.950Z,52.89
2024-04-26T01:34:43.811Z,52.88
2024-04-26T01:37:24.907Z,52.99
2024-04-26T01:40:08.197Z,52.99
2024-04-26T01:42:52.338Z,53.17
2024-04-26T01:45:36.414Z,53.07
2024-04-26T01:48:22.567Z,53.03
2024-04-26T01:51:17.283Z,53.33
2024-04-26T01:54:01.616Z,53.58
2024-04-26T01:56:50.052Z,53.62
2024-04-26T01:59:32.195Z,53.66
2024-04-26T02:02:19.141Z,53.75
2024-04-26T02:05:04.386Z,53.79
2024-04-26T02:07:56.458Z,53.80
2024-04-26T02:10:44.916Z,53.93
2024-04-26T02:13:34.239Z,53.77
2024-04-26T02:16:23.376Z,53.92
2024-04-26T02:19:11.285Z,53.82
2024-04-26T02:21:56.367Z,53.83
2024-04-26T02:24:45.431Z,53.63
2024-04-26T02:27:31.073Z,53.48
2024-04-26T02:30:18.929Z,53.81
2024-04-26T02:33:00.232Z,54.03
2024-04-26T02:35:43.968Z,54.10
2024-04-26T02:38:31.538Z,53.79
2024-04-26T02:41:23.526Z,53.84
2024-04-26T02:44:11.802Z,53.96
2024-04-26T02:47:01.622Z,54.03
2024-04-26T02:49:41.771Z,53.89
2024-04-26T02:52:32.206Z,53.88
2024-04-26T02:55:16.992Z,54.19
2024-04-26T02:58:02.954Z,54.00
2024-04-26T03:00:54.994Z,53.99
2024-04-26T03:03:37.763Z,53.88
2024-04-26T03:06:18.631Z,54.02
2024-04-26T03:09:05.204Z,54.25
2024-04-26T03:11:52.627Z,54.31
2024-04-26T03:14:36.131Z,54.53
2024-04-26T03:17:17.795Z,54.74
2024-04-26T03:20:05.791Z,54.93
2024-04-26T03:22:50.299Z,54.88
2024-04-26T03:25:37.995Z,54.83
2024-04-26T03:28:23.384Z,54.88
2024-04-26T03:31:18.638Z,54.55
2024-04-26T03:34:02.659Z,54.74
2024-04-26T03:36:54.669Z,54.70
2024-04-26T03:39:36.625Z,54.93
2024-04-26T03:42:27.288Z,55.16
2024-04-26T03:45:17.427Z,55.19
2024-04-26T03:48:10.454Z,55.29
2024-04-26T03:50:50.232Z,55.26
2024-04-26T03:53:41.722Z,54.87
2024-04-26T03:56:28.248Z,55.09
2024-04-26T03:59:16.846Z,55.22
2024-04-26T04:01:58.994Z,55.27
2024-04-26T04:04:50.666Z,55.49
2024-04-26T04:07:35.928Z,55.59
2024-04-26T04:10:24.155Z,55.64
2024-04-26T04:13:06.858Z,55.70
2024-04-26T04:15:57.475Z,55.66
2024-04-26T04:18:44.956Z,55.63
2024-04-26T04:21:35.391Z,55.76
2024-04-26T04:24:21.521Z,55.78
2024-04-26T04:27:12.883Z,55.84
2024-04-26T04:30:00.545Z,55.86
2024-04-26T04:32:43.922Z,55.79
2024-04-26T04:35:30.893Z,55.86
2024-04-26T04:38:18.988Z,55.96
2024-04-26T04:41:04.688Z,55.99
2024-04-26T04:43:59.247Z,55.95
2024-04-26T04:46:43.479Z,55.95
2024-04-26T04:49:31.857Z,56.00
2024-04-26T04:52:18.345Z,55.92
2024-04-26T04:55:06.519Z,55.97
2024-04-26T04:57:43.335Z,55.98
2024-04-26T05:00:28.654Z,55.96
2024-04-26T05:03:19.193Z,56.26
2024-04-26T05:06:02.674Z,56.02
2024-04-26T05:08:50.018Z,56.17
2024-04-26T05:11:37.240Z,55.94
2024-04-26T05:14:28.386Z,56.01
2024-04-26T05:17:07.081Z,55.65
2024-04-26T05:19:51.892Z,55.12
2024-04-26T05:22:36.878Z,54.83
2024-04-26T05:25:19.985Z,55.09
2024-04-26T05:28:14.991Z,55.29
2024-04-26T05:31:01.349Z,55.26
2024-04-26T05:33:48.584Z,55.07
2024-04-26T05:36:34.822Z,55.11
2024-04-26T05:39:20.781Z,55.32
2024-04-26T05:42:10.556Z,55.03
2024-04-26T05:44:59.520Z,55.26
2024-04-26T05:47:40.285Z,55.42
2024-04-26T05:50:22.388Z,55.41
2024-04-26T05:53:06.529Z,55.45
2024-04-26T05:55:58.180Z,55.90
2024-04-26T05:58:42.511Z,55.47
2024-04-26T06:01:31.670Z,55.12
2024-04-26T06:04:17.071Z,54.45
2024-04-26T06:07:00.810Z,53.45
2024-04-26T06:09:44.873Z,53.34
2024-04-26T06:12:28.536Z,53.80
2024-04-26T06:15:14.884Z,53.50
2024-04-26T06:18:03.633Z,53.76
2024-04-26T06:20:41.034Z,53.73
2024-04-26T06:23:26.235Z,53.58
2024-04-26T06:26:13.761Z,52.13
2024-04-26T06:28:57.370Z,52.97
2024-04-26T06:31:49.095Z,52.95
2024-04-26T06:34:35.264Z,52.29
2024-04-26T06:37:22.749Z,52.00
2024-04-26T06:40:10.155Z,51.38
2024-04-26T06:42:59.121Z,50.50
2024-04-26T06:45:39.398Z,49.64
2024-04-26T06:48:26.807Z,48.72
2024-04-26T06:51:18.611Z,47.64
2024-04-26T06:54:00.716Z,46.36
2024-04-26T06:56:45.887Z,46.26
2024-04-26T06:59:35.658Z,45.58
2024-04-26T07:02:24.182Z,43.91
2024-04-26T07:05:07.578Z,43.75
2024-04-26T07:08:02.941Z,43.90
2024-04-26T07:10:48.279Z,44.14
2024-04-26T07:13:36.560Z,43.29
2024-04-26T07:16:18.914Z,41.78
2024-04-26T07:19:08.279Z,41.86
2024-04-26T07:21:50.471Z,42.53
2024-04-26T07:24:36.574Z,42.08
2024-04-26T07:27:29.413Z,42.13
2024-04-26T07:30:17.081Z,41.17
2024-04-26T07:32:56.524Z,41.37
2024-04-26T07:35:43.071Z,39.45
2024-04-26T07:38:33.403Z,39.01
2024-04-26T07:41:20.365Z,38.68
2024-04-26T07:44:01.741Z,38.14
2024-04-26T07:46:40.280Z,36.78
2024-04-26T07:49:18.104Z,36.16
2024-04-26T07:51:55.418Z,36.40
2024-04-26T07:54:38.384Z,36.34
2024-04-26T07:57:18.114Z,36.42
2024-04-26T07:59:55.640Z,35.88
2024-04-26T08:02:33.976Z,35.54
2024-04-26T08:05:12.678Z,34.27
2024-04-26T08:07:57.481Z,34.46
2024-04-26T08:10:37.797Z,34.39
2024-04-26T08:13:23.914Z,33.99
2024-04-26T08:16:05.171Z,33.78
2024-04-26T08:18:41.196Z,34.02
2024-04-26T08:21:20.151Z,34.57
2024-04-26T08:24:00.779Z,34.02
2024-04-26T08:26:44.716Z,33.92
2024-04-26T08:29:25.772Z,33.11
2024-04-26T08:32:08.591Z,32.46
2024-04-26T08:34:55.130Z,32.50
2024-04-26T08:37:37.468Z,32.33
2024-04-26T08:40:12.756Z,32.14
2024-04-26T08:42:51.813Z,31.55
2024-04-26T08:45:45.211Z,31.71
2024-04-26T08:48:31.887Z,31.53
2024-04-26T08:51:18.972Z,31.57
2024-04-26T08:54:04.438Z,30.98
2024-04-26T08:56:50.895Z,30.25
2024-04-26T08:59:46.892Z,30.28
2024-04-26T09:02:33.791Z,30.15
2024-04-26T09:05:21.298Z,29.92
2024-04-26T09:08:10.205Z,29.54
2024-04-26T09:10:54.353Z,29.22
2024-04-26T09:13:33.642Z,28.93
2024-04-26T09:16:15.693Z,29.43
2024-04-26T09:18:56.306Z,29.68
2024-04-26T09:21:35.312Z,29.81
2024-04-26T09:24:12.875Z,29.40
2024-04-26T09:27:01.800Z,28.96
2024-04-26T09:29:48.496Z,29.45
2024-04-26T09:32:30.377Z,29.57
2024-04-26T09:35:12.963Z,29.68
2024-04-26T09:37:56.988Z,29.72
2024-04-26T09:40:36.547Z,29.56
2024-04-26T09:43:19.227Z,29.75
2024-04-26T09:45:57.255Z,29.80
2024-04-26T09:48:40.484Z,29.68
2024-04-26T09:51:34.695Z,29.88
2024-04-26T09:54:18.186Z,30.03
2024-04-26T09:57:04.318Z,30.06
2024-04-26T09:59:43.156Z,30.00
2024-04-26T10:02:24.890Z,30.03
2024-04-26T10:05:05.536Z,30.21
2024-04-26T10:07:47.999Z,29.96
2024-04-26T10:10:28.870Z,30.14
2024-04-26T10:13:25.663Z,30.21
2024-04-26T10:16:00.329Z,29.84
2024-04-26T10:18:44.096Z,29.54
2024-04-26T10:21:29.012Z,29.02
2024-04-26T10:24:09.153Z,28.86
2024-04-26T10:27:05.571Z,28.92
2024-04-26T10:29:50.112Z,29.10
2024-04-26T10:32:29.110Z,28.97
2024-04-26T10:35:11.259Z,28.87
2024-04-26T10:38:20.858Z,28.99
2024-04-26T10:41:09.342Z,29.01
2024-04-26T10:43:46.389Z,28.95
2024-04-26T10:46:23.078Z,29.09
2024-04-26T10:49:17.558Z,29.26
2024-04-26T10:52:16.773Z,29.29
2024-04-26T10:55:03.638Z,29.30
2024-04-26T10:57:47.382Z,29.42
2024-04-26T11:00:23.695Z,29.53
2024-04-26T11:03:14.342Z,29.32
2024-04-26T11:05:55.898Z,29.28
2024-04-26T11:08:39.779Z,29.29
2024-04-26T11:11:17.766Z,29.11
2024-04-26T11:13:56.457Z,29.20
2024-04-26T11:16:39.367Z,29.18
2024-04-26T11:19:33.204Z,28.92
2024-04-26T11:22:13.784Z,29.00
2024-04-26T11:24:57.872Z,29.07
2024-04-26T11:27:37.899Z,29.20
2024-04-26T11:30:15.503Z,29.08
2024-04-26T11:32:52.377Z,28.94
2024-04-26T11:35:32.269Z,28.81
2024-04-26T11:38:15.823Z,28.94
2024-04-26T11:40:56.622Z,28.80
2024-04-26T11:43:36.324Z,28.77
2024-04-26T11:46:22.246Z,28.86
2024-04-26T11:49:03.707Z,29.05
2024-04-26T11:51:44.534Z,28.86
2024-04-26T11:54:24.840Z,28.94
2024-04-26T11:57:09.847Z,29.12
2024-04-26T11:59:48.743Z,29.14
2024-04-26T12:02:30.441Z,28.88
2024-04-26T12:05:10.754Z,29.04
2024-04-26T12:07:51.675Z,29.02
2024-04-26T12:10:34.137Z,28.92
2024-04-26T12:13:16.606Z,29.02
2024-04-26T12:15:58.241Z,29.11
2024-04-26T12:18:44.143Z,28.77
2024-04-26T12:21:33.780Z,28.88
2024-04-26T12:24:24.465Z,29.03
2024-04-26T12:27:14.247Z,29.02
2024-04-26T12:29:53.840Z,29.02
2024-04-26T12:32:34.622Z,29.11
2024-04-26T12:35:15.321Z,29.19
2024-04-26T12:37:52.049Z,29.17
2024-04-26T12:40:32.230Z,29.18
2024-04-26T12:43:08.220Z,29.23
2024-04-26T12:45:47.726Z,29.21
2024-04-26T12:48:24.379Z,29.30
2024-04-26T12:51:07.119Z,29.13
2024-04-26T12:53:46.093Z,29.22
2024-04-26T12:56:22.796Z,29.20
2024-04-26T12:59:09.442Z,29.15
2024-04-26T13:01:46.337Z,29.06
2024-04-26T13:04:35.368Z,29.13
2024-04-26T13:07:15.830Z,29.39
2024-04-26T13:09:54.881Z,29.40
2024-04-26T13:12:40.886Z,29.38
2024-04-26T13:15:20.408Z,29.43
2024-04-26T13:18:06.248Z,29.33
2024-04-26T13:20:51.048Z,29.51
2024-04-26T13:23:31.253Z,29.57
2024-04-26T13:26:13.089Z,29.62
2024-04-26T13:28:55.838Z,29.61
2024-04-26T13:31:34.188Z,29.66
2024-04-26T13:34:20.688Z,29.66
2024-04-26T13:37:06.401Z,29.63
2024-04-26T13:39:50.628Z,29.73
2024-04-26T13:42:28.163Z,29.77
2024-04-26T13:45:12.213Z,29.73
2024-04-26T13:47:51.941Z,29.75
2024-04-26T13:50:32.935Z,29.72
2024-04-26T13:53:09.964Z,29.85
2024-04-26T13:55:48.668Z,29.85
2024-04-26T13:58:26.465Z,29.97
2024-04-26T14:01:08.387Z,29.86
2024-04-26T14:03:49.078Z,29.96
2024-04-26T14:06:31.403Z,30.10
2024-04-26T14:09:15.616Z,30.08
2024-04-26T14:11:59.279Z,30.25
2024-04-26T14:14:40.595Z,30.25
2024-04-26T14:17:20.633Z,30.25
2024-04-26T14:20:02.024Z,30.24
2024-04-26T14:22:44.778Z,30.43
2024-04-26T14:25:27.075Z,30.40
2024-04-26T14:28:06.091Z,30.42
2024-04-26T14:30:46.112Z,30.55
2024-04-26T14:33:35.161Z,30.70
2024-04-26T14:36:25.658Z,30.70
2024-04-26T14:39:10.540Z,30.80
2024-04-26T14:41:55.677Z,30.90
2024-04-26T14:44:35.258Z,30.95
2024-04-26T14:47:20.682Z,31.06
2024-04-26T14:50:07.965Z,31.22
2024-04-26T14:52:55.760Z,31.19
2024-04-26T14:55:38.458Z,31.29
2024-04-26T14:58:16.803Z,31.47
2024-04-26T15:00:55.476Z,31.50
2024-04-26T15:03:33.365Z,31.58
2024-04-26T15:06:11.806Z,31.63
2024-04-26T15:08:49.621Z,31.83
2024-04-26T15:11:38.132Z,31.96
2024-04-26T15:14:14.157Z,31.88
2024-04-26T15:16:54.346Z,31.89
2024-04-26T15:19:30.833Z,31.98
2024-04-26T15:22:14.095Z,32.05
2024-04-26T15:24:54.176Z,32.10
2024-04-26T15:27:34.290Z,32.10
2024-04-26T15:30:12.353Z,32.13
2024-04-26T15:32:50.067Z,32.31
2024-04-26T15:35:31.535Z,32.30
2024-04-26T15:38:12.826Z,32.37
2024-04-26T15:40:54.544Z,32.45
2024-04-26T15:43:38.828Z,32.59
2024-04-26T15:46:21.390Z,32.71
2024-04-26T15:49:02.969Z,32.75
2024-04-26T15:51:48.583Z,32.75
2024-04-26T15:54:33.697Z,32.85
2024-04-26T15:57:16.442Z,32.83
2024-04-26T15:59:57.345Z,32.88
2024-04-26T16:02:54.038Z,32.94
2024-04-26T16:05:44.429Z,32.93
2024-04-26T16:08:25.435Z,33.06
2024-04-26T16:11:10.631Z,33.09
2024-04-26T16:13:53.894Z,33.21
2024-04-26T16:16:47.089Z,33.15
2024-04-26T16:19:39.259Z,33.24
2024-04-26T16:22:31.357Z,33.30
2024-04-26T16:25:16.652Z,33.55
2024-04-26T16:27:56.333Z,33.50
2024-04-26T16:30:37.078Z,33.55
2024-04-26T16:33:23.621Z,33.65
2024-04-26T16:36:09.017Z,33.68
2024-04-26T16:38:49.159Z,33.77
2024-04-26T16:41:35.074Z,33.81
2024-04-26T16:44:13.332Z,33.78
2024-04-26T16:47:00.634Z,33.84
2024-04-26T16:49:45.073Z,33.93
2024-04-26T16:52:30.667Z,33.96
2024-04-26T16:55:24.576Z,34.08
2024-04-26T16:58:09.882Z,34.06
2024-04-26T17:00:54.398Z,34.14
2024-04-26T17:03:37.782Z,34.10
2024-04-26T17:06:31.753Z,34.13
2024-04-26T17:09:14.988Z,34.29
2024-04-26T17:12:07.250Z,34.31
2024-04-26T17:14:53.021Z,34.38
2024-04-26T17:17:38.960Z,34.42
2024-04-26T17:20:19.470Z,34.48
2024-04-26T17:23:07.272Z,34.60
2024-04-26T17:25:50.007Z,34.67
2024-04-26T17:28:43.983Z,34.79
2024-04-26T17:31:18.890Z,34.84
2024-04-26T17:33:57.373Z,34.91
2024-04-26T17:36:37.304Z,34.86
2024-04-26T17:39:28.662Z,35.01
2024-04-26T17:42:06.064Z,35.13
2024-04-26T17:44:42.320Z,35.05
2024-04-26T17:47:20.155Z,35.18
2024-04-26T17:50:05.243Z,35.22
2024-04-26T17:52:38.992Z,35.21
2024-04-26T17:55:25.258Z,35.21
2024-04-26T17:58:05.482Z,35.22
2024-04-26T18:00:44.539Z,35.31
2024-04-26T18:03:23.130Z,35.44
2024-04-26T18:06:11.836Z,35.56
2024-04-26T18:08:51.855Z,35.67
2024-04-26T18:11:31.830Z,35.65
2024-04-26T18:14:05.171Z,35.79
2024-04-26T18:16:46.031Z,35.84
2024-04-26T18:19:27.509Z,35.96
2024-04-26T18:22:05.687Z,35.91
2024-04-26T18:24:45.553Z,35.91
2024-04-26T18:27:21.269Z,35.92
2024-04-26T18:29:57.116Z,36.17
2024-04-26T18:32:32.185Z,36.15
2024-04-26T18:35:08.239Z,36.28
2024-04-26T18:37:44.918Z,36.16
2024-04-26T18:40:17.998Z,36.40
2024-04-26T18:42:50.470Z,36.44
2024-04-26T18:45:23.179Z,36.65
2024-04-26T18:48:06.197Z,36.66
2024-04-26T18:50:44.078Z,36.82
2024-04-26T18:53:27.338Z,36.74
2024-04-26T18:56:00.705Z,36.96
2024-04-26T18:58:33.747Z,36.97
2024-04-26T19:01:04.399Z,37.10
2024-04-26T19:03:34.398Z,37.25
2024-04-26T19:06:10.696Z,37.35
2024-04-26T19:08:45.366Z,37.36
2024-04-26T19:11:34.566Z,37.52
2024-04-26T19:14:19.782Z,37.48
2024-04-26T19:16:50.987Z,37.54
2024-04-26T19:19:26.125Z,37.81
2024-04-26T19:22:03.264Z,38.04
2024-04-26T19:24:38.204Z,38.08
2024-04-26T19:27:16.080Z,38.02
2024-04-26T19:29:56.578Z,38.22
2024-04-26T19:32:29.078Z,38.29
2024-04-26T19:35:06.061Z,38.37
2024-04-26T19:37:39.424Z,38.63
2024-04-26T19:40:16.127Z,38.59
2024-04-26T19:42:56.710Z,38.68
2024-04-26T19:45:32.520Z,38.80
2024-04-26T19:48:17.023Z,39.22
2024-04-26T19:51:05.002Z,39.08
2024-04-26T19:54:07.940Z,39.23
2024-04-26T19:56:45.024Z,39.29
2024-04-26T19:59:25.873Z,39.37
2024-04-26T20:02:03.845Z,39.18
2024-04-26T20:04:38.206Z,39.18
2024-04-26T20:07:11.107Z,39.43
2024-04-26T20:09:47.134Z,39.52
2024-04-26T20:12:20.954Z,39.50
2024-04-26T20:14:57.644Z,39.68
2024-04-26T20:17:34.541Z,39.65
2024-04-26T20:20:09.955Z,39.42
2024-04-26T20:22:46.256Z,39.58
2024-04-26T20:25:19.026Z,39.65
2024-04-26T20:28:01.457Z,39.83
2024-04-26T20:30:39.439Z,39.84
2024-04-26T20:33:15.323Z,39.91
2024-04-26T20:35:48.831Z,40.14
2024-04-26T20:38:32.838Z,40.02
2024-04-26T20:41:12.115Z,40.00
2024-04-26T20:43:56.509Z,40.33
2024-04-26T20:46:42.486Z,40.25
2024-04-26T20:49:22.514Z,40.31
2024-04-26T20:52:00.288Z,40.43
2024-04-26T20:54:42.337Z,40.62
2024-04-26T20:57:30.775Z,40.69
2024-04-26T21:00:16.226Z,40.66
2024-04-26T21:02:55.863Z,40.70
2024-04-26T21:05:38.250Z,40.70
2024-04-26T21:08:20.419Z,40.61
2024-04-26T21:11:00.251Z,40.75
2024-04-26T21:13:42.721Z,40.67
2024-04-26T21:16:28.326Z,40.49
2024-04-26T21:19:21.694Z,40.67
2024-04-26T21:22:10.084Z,40.56
2024-04-26T21:24:53.021Z,40.87
2024-04-26T21:27:35.501Z,40.79
2024-04-26T21:30:17.421Z,40.89
2024-04-26T21:33:04.198Z,40.95
2024-04-26T21:35:40.697Z,40.89
2024-04-26T21:38:21.296Z,41.19
2024-04-26T21:41:03.452Z,41.13
2024-04-26T21:43:43.064Z,41.16
2024-04-26T21:46:31.009Z,41.17
2024-04-26T21:49:17.210Z,41.38
2024-04-26T21:52:03.102Z,41.27
2024-04-26T21:54:58.504Z,41.33
2024-04-26T21:57:42.018Z,41.41
2024-04-26T22:00:28.089Z,41.65
2024-04-26T22:03:31.722Z,41.80
2024-04-26T22:06:18.543Z,41.71
2024-04-26T22:09:02.115Z,41.76
2024-04-26T22:11:51.088Z,41.88
2024-04-26T22:14:37.204Z,42.05
2024-04-26T22:17:30.565Z,42.27
2024-04-26T22:20:15.903Z,42.25
2024-04-26T22:23:00.334Z,42.09
2024-04-26T22:25:43.006Z,42.09
2024-04-26T22:28:28.125Z,42.20
2024-04-26T22:31:11.451Z,42.47
2024-04-26T22:34:06.054Z,42.46
2024-04-26T22:36:51.671Z,42.48
2024-04-26T22:39:44.166Z,42.61
2024-04-26T22:42:22.404Z,42.67
2024-04-26T22:45:16.703Z,42.73
2024-04-26T22:47:58.708Z,42.62
2024-04-26T22:50:40.342Z,42.66
2024-04-26T22:53:19.419Z,42.85
2024-04-26T22:56:04.384Z,42.96
2024-04-26T22:58:37.036Z,42.92
2024-04-26T23:01:26.053Z,43.11
2024-04-26T23:04:06.728Z,43.11
2024-04-26T23:06:53.779Z,43.17
2024-04-26T23:09:35.434Z,43.16
2024-04-26T23:12:20.027Z,43.35
2024-04-26T23:15:06.800Z,43.39
2024-04-26T23:18:00.348Z,43.45
2024-04-26T23:20:46.272Z,43.62
2024-04-26T23:23:38.880Z,43.40
2024-04-26T23:26:38.803Z,43.63
2024-04-26T23:29:29.064Z,43.69
2024-04-26T23:32:17.848Z,44.02
2024-04-26T23:35:11.230Z,44.16
2024-04-26T23:37:53.892Z,43.99
2024-04-26T23:40:37.663Z,44.14
2024-04-26T23:43:19.446Z,44.20
2024-04-26T23:45:55.775Z,44.16
2024-04-26T23:48:38.475Z,44.13
2024-04-26T23:51:23.864Z,44.16
2024-04-26T23:54:10.838Z,43.98
2024-04-26T23:56:56.268Z,44.11
2024-04-26T23:59:42.161Z,44.18
